sensor_id;sensor_type;location;lat;lon;timestamp;P1;durP1;ratioP1;P2;durP2;ratioP2
65377;SDS011;51982;51.042;13.806;2024-03-02T01:25:57;34.97;;;16.38;;
65377;SDS011;51982;51.042;13.806;2024-03-02T01:28:23;37.15;;;19.83;;
65377;SDS011;51982;51.042;13.806;2024-03-02T01:30:48;42.83;;;22.98;;
65377;SDS011;51982;51.042;13.806;2024-03-02T01:33:14;40.95;;;21.90;;
65377;SDS011;51982;51.042;13.806;2024-03-02T01:35:49;44.05;;;22.10;;
65377;SDS011;51982;51.042;13.806;2024-03-02T01:41:06;44.45;;;23.30;;
65377;SDS011;51982;51.042;13.806;2024-03-02T01:43:40;45.30;;;23.98;;
65377;SDS011;51982;51.042;13.806;2024-03-02T01:46:09;47.50;;;23.75;;
65377;SDS011;51982;51.042;13.806;2024-03-02T01:48:35;62.13;;;27.85;;
65377;SDS011;51982;51.042;13.806;2024-03-02T01:51:00;55.17;;;26.10;;
65377;SDS011;51982;51.042;13.806;2024-03-02T01:53:26;52.42;;;25.92;;
65377;SDS011;51982;51.042;13.806;2024-03-02T01:55:53;56.60;;;25.40;;
65377;SDS011;51982;51.042;13.806;2024-03-02T01:58:24;50.95;;;25.05;;
65377;SDS011;51982;51.042;13.806;2024-03-02T02:00:53;52.40;;;25.98;;
65377;SDS011;51982;51.042;13.806;2024-03-02T02:03:30;48.55;;;24.70;;
65377;SDS011;51982;51.042;13.806;2024-03-02T02:06:05;51.30;;;25.45;;
65377;SDS011;51982;51.042;13.806;2024-03-02T02:08:32;57.33;;;26.10;;
65377;SDS011;51982;51.042;13.806;2024-03-02T02:11:04;52.40;;;25.10;;
65377;SDS011;51982;51.042;13.806;2024-03-02T02:13:35;53.20;;;25.27;;
65377;SDS011;51982;51.042;13.806;2024-03-02T02:16:15;59.75;;;25.60;;
65377;SDS011;51982;51.042;13.806;2024-03-02T02:18:48;58.03;;;27.45;;
65377;SDS011;51982;51.042;13.806;2024-03-02T02:21:13;56.22;;;26.98;;
65377;SDS011;51982;51.042;13.806;2024-03-02T02:23:39;55.35;;;26.50;;
65377;SDS011;51982;51.042;13.806;2024-03-02T02:26:04;62.95;;;26.92;;
65377;SDS011;51982;51.042;13.806;2024-03-02T02:28:30;57.58;;;25.73;;
65377;SDS011;51982;51.042;13.806;2024-03-02T02:30:59;55.85;;;26.27;;
65377;SDS011;51982;51.042;13.806;2024-03-02T02:33:30;56.80;;;25.20;;
65377;SDS011;51982;51.042;13.806;2024-03-02T02:35:56;66.88;;;25.85;;
65377;SDS011;51982;51.042;13.806;2024-03-02T02:38:21;61.58;;;27.67;;
65377;SDS011;51982;51.042;13.806;2024-03-02T02:40:50;55.80;;;26.00;;
65377;SDS011;51982;51.042;13.806;2024-03-02T02:43:15;65.97;;;28.30;;
65377;SDS011;51982;51.042;13.806;2024-03-02T02:45:44;57.58;;;26.92;;
65377;SDS011;51982;51.042;13.806;2024-03-02T02:48:12;56.95;;;26.42;;
65377;SDS011;51982;51.042;13.806;2024-03-02T02:50:43;61.30;;;25.73;;
65377;SDS011;51982;51.042;13.806;2024-03-02T02:53:26;53.08;;;25.15;;
65377;SDS011;51982;51.042;13.806;2024-03-02T02:55:57;66.05;;;28.20;;
65377;SDS011;51982;51.042;13.806;2024-03-02T02:58:25;58.97;;;26.92;;
65377;SDS011;51982;51.042;13.806;2024-03-02T03:00:51;61.78;;;26.80;;
65377;SDS011;51982;51.042;13.806;2024-03-02T03:03:25;62.28;;;26.80;;
65377;SDS011;51982;51.042;13.806;2024-03-02T03:05:54;64.28;;;26.40;;
65377;SDS011;51982;51.042;13.806;2024-03-02T03:08:23;63.95;;;26.92;;
65377;SDS011;51982;51.042;13.806;2024-03-02T03:10:48;61.70;;;27.15;;
65377;SDS011;51982;51.042;13.806;2024-03-02T03:13:14;65.72;;;27.23;;
65377;SDS011;51982;51.042;13.806;2024-03-02T03:15:45;65.30;;;26.08;;
65377;SDS011;51982;51.042;13.806;2024-03-02T03:18:14;64.75;;;26.20;;
65377;SDS011;51982;51.042;13.806;2024-03-02T03:20:45;62.90;;;26.63;;
65377;SDS011;51982;51.042;13.806;2024-03-02T03:23:16;64.95;;;26.60;;
65377;SDS011;51982;51.042;13.806;2024-03-02T03:25:42;65.78;;;27.45;;
65377;SDS011;51982;51.042;13.806;2024-03-02T03:28:13;62.63;;;26.65;;
65377;SDS011;51982;51.042;13.806;2024-03-02T03:30:42;67.95;;;26.92;;
65377;SDS011;51982;51.042;13.806;2024-03-02T03:33:15;67.50;;;26.55;;
65377;SDS011;51982;51.042;13.806;2024-03-02T03:35:42;61.22;;;25.80;;
65377;SDS011;51982;51.042;13.806;2024-03-02T03:38:11;70.47;;;26.77;;
65377;SDS011;51982;51.042;13.806;2024-03-02T03:40:39;72.30;;;27.27;;
65377;SDS011;51982;51.042;13.806;2024-03-02T03:56:46;61.15;;;24.45;;
65377;SDS011;51982;51.042;13.806;2024-03-02T04:17:27;60.53;;;24.42;;
65377;SDS011;51982;51.042;13.806;2024-03-02T04:20:54;62.40;;;24.23;;
65377;SDS011;51982;51.042;13.806;2024-03-02T04:24:01;56.00;;;24.02;;
65377;SDS011;51982;51.042;13.806;2024-03-02T04:30:33;54.72;;;22.35;;
65377;SDS011;51982;51.042;13.806;2024-03-02T04:33:43;56.85;;;23.15;;
65377;SDS011;51982;51.042;13.806;2024-03-02T04:42:56;55.15;;;23.27;;
65377;SDS011;51982;51.042;13.806;2024-03-02T05:07:02;50.63;;;22.10;;
65377;SDS011;51982;51.042;13.806;2024-03-02T05:09:28;51.50;;;22.40;;
65377;SDS011;51982;51.042;13.806;2024-03-02T05:12:01;46.13;;;21.27;;
65377;SDS011;51982;51.042;13.806;2024-03-02T05:14:31;49.45;;;21.58;;
65377;SDS011;51982;51.042;13.806;2024-03-02T05:17:00;45.85;;;21.13;;
65377;SDS011;51982;51.042;13.806;2024-03-02T05:19:26;41.33;;;21.25;;
65377;SDS011;51982;51.042;13.806;2024-03-02T05:21:51;43.22;;;20.90;;
65377;SDS011;51982;51.042;13.806;2024-03-02T05:24:17;45.10;;;21.17;;
65377;SDS011;51982;51.042;13.806;2024-03-02T05:26:42;45.63;;;21.33;;
65377;SDS011;51982;51.042;13.806;2024-03-02T05:29:11;43.80;;;20.35;;
65377;SDS011;51982;51.042;13.806;2024-03-02T05:31:40;42.30;;;20.83;;
65377;SDS011;51982;51.042;13.806;2024-03-02T05:34:13;46.83;;;21.35;;
65377;SDS011;51982;51.042;13.806;2024-03-02T05:36:39;42.57;;;20.50;;
65377;SDS011;51982;51.042;13.806;2024-03-02T05:39:05;43.03;;;21.33;;
65377;SDS011;51982;51.042;13.806;2024-03-02T05:41:34;51.97;;;21.45;;
65377;SDS011;51982;51.042;13.806;2024-03-02T05:44:00;45.22;;;21.10;;
65377;SDS011;51982;51.042;13.806;2024-03-02T05:46:26;51.08;;;22.25;;
65377;SDS011;51982;51.042;13.806;2024-03-02T05:48:52;45.80;;;21.38;;
65377;SDS011;51982;51.042;13.806;2024-03-02T05:51:17;53.42;;;23.23;;
65377;SDS011;51982;51.042;13.806;2024-03-02T05:53:46;47.60;;;22.60;;
65377;SDS011;51982;51.042;13.806;2024-03-02T05:56:14;47.08;;;21.50;;
65377;SDS011;51982;51.042;13.806;2024-03-02T05:58:40;49.15;;;21.95;;
65377;SDS011;51982;51.042;13.806;2024-03-02T06:01:37;46.03;;;21.92;;
65377;SDS011;51982;51.042;13.806;2024-03-02T06:04:03;48.88;;;21.05;;
65377;SDS011;51982;51.042;13.806;2024-03-02T06:06:28;44.67;;;21.08;;
65377;SDS011;51982;51.042;13.806;2024-03-02T06:08:54;52.90;;;21.40;;
65377;SDS011;51982;51.042;13.806;2024-03-02T06:11:27;43.25;;;21.17;;
65377;SDS011;51982;51.042;13.806;2024-03-02T06:17:00;48.90;;;20.10;;
65377;SDS011;51982;51.042;13.806;2024-03-02T06:19:27;45.08;;;21.52;;
65377;SDS011;51982;51.042;13.806;2024-03-02T06:21:53;54.95;;;23.08;;
65377;SDS011;51982;51.042;13.806;2024-03-02T06:24:19;50.90;;;21.92;;
65377;SDS011;51982;51.042;13.806;2024-03-02T06:29:32;49.13;;;21.75;;
65377;SDS011;51982;51.042;13.806;2024-03-02T06:34:52;52.58;;;22.25;;
65377;SDS011;51982;51.042;13.806;2024-03-02T06:37:47;49.88;;;22.05;;
65377;SDS011;51982;51.042;13.806;2024-03-02T06:40:31;49.42;;;20.67;;
65377;SDS011;51982;51.042;13.806;2024-03-02T06:43:25;47.28;;;20.98;;
65377;SDS011;51982;51.042;13.806;2024-03-02T06:46:16;47.42;;;20.23;;
65377;SDS011;51982;51.042;13.806;2024-03-02T06:48:45;54.05;;;21.95;;
65377;SDS011;51982;51.042;13.806;2024-03-02T06:51:17;48.58;;;21.17;;
65377;SDS011;51982;51.042;13.806;2024-03-02T06:53:44;51.50;;;21.35;;
65377;SDS011;51982;51.042;13.806;2024-03-02T06:56:16;47.08;;;20.98;;
65377;SDS011;51982;51.042;13.806;2024-03-02T06:58:41;50.33;;;21.02;;
65377;SDS011;51982;51.042;13.806;2024-03-02T07:01:08;47.60;;;21.13;;
65377;SDS011;51982;51.042;13.806;2024-03-02T07:03:59;46.38;;;20.20;;
65377;SDS011;51982;51.042;13.806;2024-03-02T07:06:32;45.10;;;19.95;;
65377;SDS011;51982;51.042;13.806;2024-03-02T07:08:57;48.05;;;20.00;;
65377;SDS011;51982;51.042;13.806;2024-03-02T07:14:26;46.70;;;20.75;;
65377;SDS011;51982;51.042;13.806;2024-03-02T07:17:18;44.65;;;20.38;;
65377;SDS011;51982;51.042;13.806;2024-03-02T07:22:19;52.90;;;20.63;;
65377;SDS011;51982;51.042;13.806;2024-03-02T07:24:54;46.22;;;20.48;;
65377;SDS011;51982;51.042;13.806;2024-03-02T07:27:37;46.63;;;20.02;;
65377;SDS011;51982;51.042;13.806;2024-03-02T07:30:13;50.80;;;21.15;;
65377;SDS011;51982;51.042;13.806;2024-03-02T07:32:50;50.88;;;21.65;;
65377;SDS011;51982;51.042;13.806;2024-03-02T07:35:23;51.13;;;20.40;;
65377;SDS011;51982;51.042;13.806;2024-03-02T07:37:52;45.20;;;20.50;;
65377;SDS011;51982;51.042;13.806;2024-03-02T07:40:23;49.45;;;21.05;;
65377;SDS011;51982;51.042;13.806;2024-03-02T07:42:52;43.25;;;19.67;;
65377;SDS011;51982;51.042;13.806;2024-03-02T07:45:21;47.80;;;19.25;;
65377;SDS011;51982;51.042;13.806;2024-03-02T07:47:47;48.30;;;19.98;;
65377;SDS011;51982;51.042;13.806;2024-03-02T07:50:24;40.97;;;17.98;;
65377;SDS011;51982;51.042;13.806;2024-03-02T07:52:52;43.30;;;19.60;;
65377;SDS011;51982;51.042;13.806;2024-03-02T07:58:39;38.65;;;17.77;;
65377;SDS011;51982;51.042;13.806;2024-03-02T08:01:07;42.63;;;17.48;;
65377;SDS011;51982;51.042;13.806;2024-03-02T08:03:33;39.92;;;17.80;;
65377;SDS011;51982;51.042;13.806;2024-03-02T08:05:59;43.95;;;18.23;;
65377;SDS011;51982;51.042;13.806;2024-03-02T08:08:25;42.78;;;17.35;;
65377;SDS011;51982;51.042;13.806;2024-03-02T08:10:50;42.10;;;18.02;;
65377;SDS011;51982;51.042;13.806;2024-03-02T08:13:16;38.10;;;17.23;;
65377;SDS011;51982;51.042;13.806;2024-03-02T08:15:41;44.15;;;17.35;;
65377;SDS011;51982;51.042;13.806;2024-03-02T08:18:07;40.00;;;17.10;;
65377;SDS011;51982;51.042;13.806;2024-03-02T08:20:33;41.83;;;16.83;;
65377;SDS011;51982;51.042;13.806;2024-03-02T08:22:58;37.42;;;15.23;;
65377;SDS011;51982;51.042;13.806;2024-03-02T08:25:24;38.78;;;15.93;;
65377;SDS011;51982;51.042;13.806;2024-03-02T08:27:49;32.40;;;14.15;;
65377;SDS011;51982;51.042;13.806;2024-03-02T08:30:15;27.05;;;13.32;;
65377;SDS011;51982;51.042;13.806;2024-03-02T08:32:41;30.25;;;13.02;;
65377;SDS011;51982;51.042;13.806;2024-03-02T08:35:06;26.88;;;12.43;;
65377;SDS011;51982;51.042;13.806;2024-03-02T08:37:32;25.40;;;11.70;;
65377;SDS011;51982;51.042;13.806;2024-03-02T08:40:00;23.55;;;11.25;;
65377;SDS011;51982;51.042;13.806;2024-03-02T08:42:26;22.92;;;11.38;;
65377;SDS011;51982;51.042;13.806;2024-03-02T08:44:52;25.27;;;11.88;;
65377;SDS011;51982;51.042;13.806;2024-03-02T08:47:17;22.45;;;11.90;;
65377;SDS011;51982;51.042;13.806;2024-03-02T08:49:46;29.38;;;11.90;;
65377;SDS011;51982;51.042;13.806;2024-03-02T08:52:11;23.45;;;11.98;;
65377;SDS011;51982;51.042;13.806;2024-03-02T08:54:37;22.58;;;11.23;;
65377;SDS011;51982;51.042;13.806;2024-03-02T08:57:05;23.88;;;11.48;;
65377;SDS011;51982;51.042;13.806;2024-03-02T08:59:32;24.63;;;11.02;;
65377;SDS011;51982;51.042;13.806;2024-03-02T09:02:00;25.38;;;11.48;;
65377;SDS011;51982;51.042;13.806;2024-03-02T09:04:26;28.48;;;13.20;;
65377;SDS011;51982;51.042;13.806;2024-03-02T09:06:52;30.42;;;13.35;;
65377;SDS011;51982;51.042;13.806;2024-03-02T09:09:18;27.55;;;13.52;;
65377;SDS011;51982;51.042;13.806;2024-03-02T09:11:45;29.92;;;13.10;;
65377;SDS011;51982;51.042;13.806;2024-03-02T09:14:11;39.28;;;14.77;;
65377;SDS011;51982;51.042;13.806;2024-03-02T09:16:37;35.33;;;14.10;;
65377;SDS011;51982;51.042;13.806;2024-03-02T09:19:03;32.08;;;14.02;;
65377;SDS011;51982;51.042;13.806;2024-03-02T09:21:29;31.23;;;13.57;;
65377;SDS011;51982;51.042;13.806;2024-03-02T09:23:55;32.42;;;13.35;;
65377;SDS011;51982;51.042;13.806;2024-03-02T09:26:21;33.67;;;15.38;;
65377;SDS011;51982;51.042;13.806;2024-03-02T09:28:47;34.17;;;15.48;;
65377;SDS011;51982;51.042;13.806;2024-03-02T09:31:13;27.73;;;13.10;;
65377;SDS011;51982;51.042;13.806;2024-03-02T09:33:38;34.25;;;13.88;;
65377;SDS011;51982;51.042;13.806;2024-03-02T09:36:04;25.20;;;10.52;;
65377;SDS011;51982;51.042;13.806;2024-03-02T09:38:33;30.58;;;14.20;;
65377;SDS011;51982;51.042;13.806;2024-03-02T09:40:59;35.92;;;15.82;;
65377;SDS011;51982;51.042;13.806;2024-03-02T09:43:26;36.35;;;14.75;;
65377;SDS011;51982;51.042;13.806;2024-03-02T09:45:52;31.95;;;15.40;;
65377;SDS011;51982;51.042;13.806;2024-03-02T09:48:17;38.05;;;16.58;;
65377;SDS011;51982;51.042;13.806;2024-03-02T09:50:45;38.72;;;16.35;;
65377;SDS011;51982;51.042;13.806;2024-03-02T09:53:11;45.20;;;17.40;;
65377;SDS011;51982;51.042;13.806;2024-03-02T09:55:37;36.05;;;16.73;;
65377;SDS011;51982;51.042;13.806;2024-03-02T09:58:10;40.95;;;17.20;;
65377;SDS011;51982;51.042;13.806;2024-03-02T10:00:37;39.03;;;16.13;;
65377;SDS011;51982;51.042;13.806;2024-03-02T22:00:52;32.75;;;18.45;;
65377;SDS011;51982;51.042;13.806;2024-03-02T22:03:19;37.63;;;19.20;;
65377;SDS011;51982;51.042;13.806;2024-03-02T22:05:44;37.13;;;18.70;;
65377;SDS011;51982;51.042;13.806;2024-03-02T22:08:10;39.90;;;19.08;;
65377;SDS011;51982;51.042;13.806;2024-03-02T22:10:35;40.50;;;18.85;;
65377;SDS011;51982;51.042;13.806;2024-03-02T22:13:01;37.33;;;19.42;;
65377;SDS011;51982;51.042;13.806;2024-03-02T22:15:26;36.00;;;19.70;;
65377;SDS011;51982;51.042;13.806;2024-03-02T22:17:52;34.55;;;18.55;;
65377;SDS011;51982;51.042;13.806;2024-03-02T22:20:18;34.60;;;18.52;;
65377;SDS011;51982;51.042;13.806;2024-03-02T22:22:43;34.30;;;19.08;;
65377;SDS011;51982;51.042;13.806;2024-03-02T22:25:09;32.80;;;18.55;;
65377;SDS011;51982;51.042;13.806;2024-03-02T22:27:34;38.40;;;18.63;;
65377;SDS011;51982;51.042;13.806;2024-03-02T22:30:02;33.70;;;18.25;;
65377;SDS011;51982;51.042;13.806;2024-03-02T22:32:31;36.90;;;19.05;;
65377;SDS011;51982;51.042;13.806;2024-03-02T22:34:56;33.65;;;19.25;;
65377;SDS011;51982;51.042;13.806;2024-03-02T22:37:22;33.85;;;18.63;;
65377;SDS011;51982;51.042;13.806;2024-03-02T22:39:47;33.53;;;19.23;;
65377;SDS011;51982;51.042;13.806;2024-03-02T22:42:13;32.05;;;18.45;;
65377;SDS011;51982;51.042;13.806;2024-03-02T22:44:39;33.88;;;16.63;;
65377;SDS011;51982;51.042;13.806;2024-03-02T22:47:04;34.08;;;17.90;;
65377;SDS011;51982;51.042;13.806;2024-03-02T22:49:30;29.05;;;16.38;;
65377;SDS011;51982;51.042;13.806;2024-03-02T22:56:19;29.80;;;16.23;;
65377;SDS011;51982;51.042;13.806;2024-03-02T22:59:13;31.20;;;15.07;;
65377;SDS011;51982;51.042;13.806;2024-03-02T23:01:42;30.42;;;15.88;;
65377;SDS011;51982;51.042;13.806;2024-03-02T23:04:12;25.38;;;14.80;;
65377;SDS011;51982;51.042;13.806;2024-03-02T23:06:47;31.00;;;15.55;;
65377;SDS011;51982;51.042;13.806;2024-03-02T23:12:39;26.17;;;14.40;;
65377;SDS011;51982;51.042;13.806;2024-03-02T23:15:20;24.77;;;14.63;;
65377;SDS011;51982;51.042;13.806;2024-03-02T23:25:43;27.90;;;14.07;;
65377;SDS011;51982;51.042;13.806;2024-03-02T23:28:22;21.10;;;12.73;;
65377;SDS011;51982;51.042;13.806;2024-03-02T23:38:10;20.25;;;12.57;;
65377;SDS011;51982;51.042;13.806;2024-03-02T23:40:36;21.13;;;12.15;;
65377;SDS011;51982;51.042;13.806;2024-03-02T23:46:31;25.45;;;12.50;;
65377;SDS011;51982;51.042;13.806;2024-03-02T23:49:06;22.52;;;12.27;;
65377;SDS011;51982;51.042;13.806;2024-03-02T23:51:44;23.15;;;13.25;;
65377;SDS011;51982;51.042;13.806;2024-03-02T23:54:10;22.65;;;12.13;;
65377;SDS011;51982;51.042;13.806;2024-03-02T23:56:36;25.08;;;12.10;;
65377;SDS011;51982;51.042;13.806;2024-03-02T23:59:01;20.20;;;11.75;;
